createdAt,value
2022-12-14T00:01:42.536Z,94498.75
2022-12-14T00:04:18.134Z,94474.88
2022-12-14T00:06:45.657Z,94486.00
2022-12-14T00:09:13.141Z,94493.47
2022-12-14T00:11:40.638Z,94465.91
2022-12-14T00:14:08.467Z,94483.34
2022-12-14T00:16:36.038Z,94468.81
2022-12-14T00:19:05.235Z,94444.34
2022-12-14T00:21:34.081Z,94461.25
2022-12-14T00:24:01.524Z,94474.75
2022-12-14T00:26:30.896Z,94472.38
2022-12-14T00:28:59.888Z,94469.28
2022-12-14T00:31:27.710Z,94437.53
2022-12-14T00:33:55.336Z,94473.78
2022-12-14T00:36:23.057Z,94472.59
2022-12-14T00:38:51.871Z,94465.13
2022-12-14T00:41:19.497Z,94439.84
2022-12-14T00:43:49.349Z,94448.31
2022-12-14T00:46:17.228Z,94438.59
2022-12-14T00:48:44.791Z,94426.22
2022-12-14T00:51:14.580Z,94433.84
2022-12-14T00:53:42.258Z,94428.97
2022-12-14T00:56:12.100Z,94443.78
2022-12-14T00:58:39.552Z,94447.31
2022-12-14T01:01:09.127Z,94447.72
2022-12-14T01:03:36.871Z,94456.88
2022-12-14T01:06:04.879Z,94450.06
2022-12-14T01:08:36.377Z,94449.91
2022-12-14T01:11:06.240Z,94437.16
2022-12-14T01:13:36.124Z,94434.22
2022-12-14T01:16:04.912Z,94439.31
2022-12-14T01:18:34.541Z,94443.00
2022-12-14T01:21:10.114Z,94452.44
2022-12-14T01:23:37.723Z,94428.38
2022-12-14T01:26:05.171Z,94426.81
2022-12-14T01:28:34.922Z,94413.31
2022-12-14T01:31:08.332Z,94421.53
2022-12-14T01:33:35.938Z,94420.75
2022-12-14T01:36:08.296Z,94425.47
2022-12-14T01:38:35.785Z,94416.06
2022-12-14T01:41:03.720Z,94386.09
2022-12-14T01:43:47.127Z,94399.63
2022-12-14T01:46:22.595Z,94413.91
2022-12-14T01:48:52.715Z,94406.06
2022-12-14T01:51:20.375Z,94400.41
2022-12-14T01:53:48.032Z,94392.59
2022-12-14T01:56:17.309Z,94388.88
2022-12-14T01:58:44.766Z,94393.00
2022-12-14T02:01:13.884Z,94385.00
2022-12-14T02:03:47.113Z,94378.13
2022-12-14T02:06:20.645Z,94372.06
2022-12-14T02:08:51.873Z,94330.19
2022-12-14T02:11:27.526Z,94372.84
2022-12-14T02:13:54.951Z,94377.34
2022-12-14T02:16:22.555Z,94374.63
2022-12-14T02:18:51.350Z,94377.38
2022-12-14T02:21:24.881Z,94342.75
2022-12-14T02:24:15.792Z,94342.16
2022-12-14T02:27:06.128Z,94353.13
2022-12-14T02:29:52.698Z,94340.81
2022-12-14T02:32:34.977Z,94339.25
2022-12-14T02:35:08.566Z,94333.38
2022-12-14T02:37:44.781Z,94329.84
2022-12-14T02:40:25.405Z,94338.47
2022-12-14T02:43:04.167Z,94329.50
2022-12-14T02:45:42.064Z,94318.34
2022-12-14T02:48:15.427Z,94322.66
2022-12-14T02:50:50.295Z,94317.75
2022-12-14T02:53:23.467Z,94325.63
2022-12-14T02:55:52.917Z,94322.28
2022-12-14T02:58:25.091Z,94332.06
2022-12-14T03:00:55.352Z,94318.00
2022-12-14T03:03:23.193Z,94318.16
2022-12-14T03:05:58.224Z,94318.97
2022-12-14T03:08:27.428Z,94304.13
2022-12-14T03:10:58.830Z,94294.31
2022-12-14T03:13:31.255Z,94277.72
2022-12-14T03:16:06.067Z,94284.94
2022-12-14T03:18:38.427Z,94278.31
2022-12-14T03:21:09.343Z,94288.47
2022-12-14T03:23:40.324Z,94300.19
2022-12-14T03:26:13.874Z,94281.44
2022-12-14T03:28:47.536Z,94288.66
2022-12-14T03:31:20.390Z,94272.06
2022-12-14T03:33:51.712Z,94282.78
2022-12-14T03:36:31.134Z,94303.50
2022-12-14T03:39:03.626Z,94305.88
2022-12-14T03:41:41.940Z,94304.28
2022-12-14T03:44:30.512Z,94314.06
2022-12-14T03:47:09.873Z,94310.16
2022-12-14T03:49:49.997Z,94302.53
2022-12-14T03:52:23.898Z,94309.97
2022-12-14T03:55:00.813Z,94313.31
2022-12-14T03:57:44.802Z,94303.31
2022-12-14T04:00:15.389Z,94296.50
2022-12-14T04:02:50.035Z,94315.06
2022-12-14T04:05:23.429Z,94319.38
2022-12-14T04:08:00.823Z,94313.31
2022-12-14T04:10:50.417Z,94289.66
2022-12-14T04:13:39.046Z,94299.81
2022-12-14T04:16:29.789Z,94295.34
2022-12-14T04:19:02.407Z,94302.56
2022-12-14T04:21:38.552Z,94297.66
2022-12-14T04:24:30.985Z,94254.84
2022-12-14T04:27:03.375Z,94285.72
2022-12-14T04:29:52.478Z,94288.47
2022-12-14T04:32:24.936Z,94273.41
2022-12-14T04:34:58.639Z,94275.38
2022-12-14T04:37:29.185Z,94263.81
2022-12-14T04:40:00.467Z,94264.41
2022-12-14T04:42:33.783Z,94265.81
2022-12-14T04:45:05.926Z,94268.31
2022-12-14T04:47:39.564Z,94267.19
2022-12-14T04:50:13.320Z,94259.13
2022-12-14T04:52:45.859Z,94235.91
2022-12-14T04:55:18.983Z,94221.25
2022-12-14T04:57:52.369Z,94228.28
2022-12-14T05:00:20.072Z,94234.31
2022-12-14T05:03:07.381Z,94218.88
2022-12-14T05:05:44.765Z,94212.63
2022-12-14T05:08:21.409Z,94226.31
2022-12-14T05:10:52.854Z,94211.06
2022-12-14T05:13:24.975Z,94174.94
2022-12-14T05:15:55.889Z,94207.13
2022-12-14T05:18:24.293Z,94190.91
2022-12-14T05:20:53.109Z,94183.00
2022-12-14T05:23:21.017Z,94185.53
2022-12-14T05:25:49.104Z,94171.91
2022-12-14T05:28:16.768Z,94176.94
2022-12-14T05:30:49.076Z,94166.00
2022-12-14T05:33:19.426Z,94164.97
2022-12-14T05:35:47.179Z,94133.59
2022-12-14T05:38:15.980Z,94155.47
2022-12-14T05:40:43.408Z,94146.25
2022-12-14T05:43:13.084Z,94151.19
2022-12-14T05:45:40.650Z,94136.72
2022-12-14T05:48:08.247Z,94143.00
2022-12-14T05:50:35.709Z,94121.50
2022-12-14T05:53:03.186Z,94146.31
2022-12-14T05:55:31.994Z,94154.13
2022-12-14T05:57:59.440Z,94149.81
2022-12-14T06:00:27.167Z,94158.41
2022-12-14T06:02:56.278Z,94150.00
2022-12-14T06:05:23.757Z,94150.78
2022-12-14T06:07:51.388Z,94150.59
2022-12-14T06:10:18.847Z,94141.41
2022-12-14T06:12:47.623Z,94142.31
2022-12-14T06:15:15.287Z,94152.31
2022-12-14T06:17:43.713Z,94155.84
2022-12-14T06:20:12.141Z,94144.69
2022-12-14T06:22:45.733Z,94154.84
2022-12-14T06:25:14.940Z,94155.25
2022-12-14T06:27:42.388Z,94146.03
2022-12-14T06:30:13.179Z,94164.19
2022-12-14T06:32:40.609Z,94163.00
2022-12-14T06:35:09.503Z,94175.31
2022-12-14T06:37:36.899Z,94171.97
2022-12-14T06:40:04.936Z,94175.91
2022-12-14T06:42:32.732Z,94169.25
2022-12-14T06:45:00.277Z,94175.13
2022-12-14T06:47:29.206Z,94192.16
2022-12-14T06:49:56.611Z,94190.16
2022-12-14T06:52:26.931Z,94193.69
2022-12-14T06:54:54.872Z,94199.38
2022-12-14T06:57:22.277Z,94216.16
2022-12-14T06:59:49.709Z,94223.44
2022-12-14T07:02:17.287Z,94224.00
2022-12-14T07:04:46.188Z,94222.41
2022-12-14T07:07:13.590Z,94220.84
2022-12-14T07:09:41.006Z,94220.44
2022-12-14T07:12:08.490Z,94206.56
2022-12-14T07:14:36.195Z,94208.31
2022-12-14T07:17:03.632Z,94199.00
2022-12-14T07:19:31.390Z,94174.78
2022-12-14T07:22:03.958Z,94200.75
2022-12-14T07:24:31.423Z,94194.25
2022-12-14T07:27:00.252Z,94204.44
2022-12-14T07:29:34.148Z,94166.78
2022-12-14T07:32:02.166Z,94190.03
2022-12-14T07:34:29.677Z,94187.25
2022-12-14T07:36:57.619Z,94182.41
2022-12-14T07:39:26.440Z,94189.28
2022-12-14T07:41:54.541Z,94191.13
2022-12-14T07:44:22.456Z,94205.81
2022-12-14T07:46:49.908Z,94196.94
2022-12-14T07:49:17.448Z,94201.38
2022-12-14T07:51:45.828Z,94199.63
2022-12-14T07:54:14.124Z,94202.00
2022-12-14T07:56:44.563Z,94200.41
2022-12-14T07:59:15.405Z,94195.44
2022-12-14T08:01:43.997Z,94189.34
2022-12-14T08:04:13.303Z,94188.25
2022-12-14T08:06:41.667Z,94184.66
2022-12-14T08:09:11.343Z,94193.06
2022-12-14T08:11:39.637Z,94193.16
2022-12-14T08:14:11.530Z,94188.38
2022-12-14T08:16:39.037Z,94182.09
2022-12-14T08:19:06.571Z,94189.91
2022-12-14T08:21:34.009Z,94206.69
2022-12-14T08:24:01.419Z,94202.97
2022-12-14T08:26:35.216Z,94194.94
2022-12-14T08:29:03.751Z,94208.09
2022-12-14T08:31:33.254Z,94207.25
2022-12-14T08:34:02.078Z,94205.28
2022-12-14T08:36:32.550Z,94208.81
2022-12-14T08:39:02.080Z,94185.34
2022-12-14T08:41:30.032Z,94206.59
2022-12-14T08:43:59.206Z,94209.50
2022-12-14T08:46:28.419Z,94211.59
2022-12-14T08:48:57.638Z,94207.81
2022-12-14T08:51:26.588Z,94208.19
2022-12-14T08:53:55.379Z,94194.34
2022-12-14T08:56:25.696Z,94214.41
2022-12-14T08:58:53.694Z,94201.59
2022-12-14T09:01:28.184Z,94214.66
2022-12-14T09:04:04.843Z,94208.75
2022-12-14T09:06:35.161Z,94194.19
2022-12-14T09:09:02.604Z,94216.63
2022-12-14T09:11:30.100Z,94223.84
2022-12-14T09:13:58.066Z,94229.09
2022-12-14T09:16:27.102Z,94226.34
2022-12-14T09:18:55.263Z,94234.31
2022-12-14T09:21:24.583Z,94229.03
2022-12-14T09:23:57.344Z,94237.91
2022-12-14T09:26:26.942Z,94246.00
2022-12-14T09:28:56.676Z,94247.13
2022-12-14T09:31:25.760Z,94242.69
2022-12-14T09:33:54.688Z,94243.41
2022-12-14T09:36:25.266Z,94248.69
2022-12-14T09:38:55.067Z,94242.00
2022-12-14T09:41:32.668Z,94261.16
2022-12-14T09:44:06.328Z,94231.88
2022-12-14T09:46:47.088Z,94245.94
2022-12-14T09:49:25.684Z,94243.69
2022-12-14T09:51:56.112Z,94243.66
2022-12-14T09:54:27.398Z,94202.66
2022-12-14T09:56:58.223Z,94249.38
2022-12-14T09:59:28.972Z,94212.75
2022-12-14T10:04:59.527Z,94252.75
2022-12-14T10:07:36.942Z,94246.84
2022-12-14T10:10:14.776Z,94249.41
2022-12-14T10:12:55.260Z,94255.69
2022-12-14T10:15:28.908Z,94247.41
2022-12-14T10:18:49.551Z,94248.19
2022-12-14T10:21:07.300Z,94251.09
2022-12-14T10:23:36.783Z,94258.91
2022-12-14T10:26:08.818Z,94252.25
2022-12-14T10:28:45.687Z,94256.41
2022-12-14T10:31:22.012Z,94271.97
2022-12-14T10:33:49.472Z,94266.78
2022-12-14T10:36:21.019Z,94256.22
2022-12-14T10:38:58.280Z,94254.50
2022-12-14T10:41:35.718Z,94254.25
2022-12-14T10:44:14.680Z,94259.06
2022-12-14T10:46:50.319Z,94248.00
2022-12-14T10:49:24.261Z,94247.47
2022-12-14T10:51:58.583Z,94234.13
2022-12-14T10:54:33.251Z,94242.16
2022-12-14T10:57:01.420Z,94256.75
2022-12-14T10:59:38.960Z,94250.00
2022-12-14T11:02:15.478Z,94238.88
2022-12-14T11:04:49.250Z,94235.44
2022-12-14T11:07:19.607Z,94233.00
2022-12-14T11:09:48.456Z,94227.81
2022-12-14T11:12:23.163Z,94235.78
2022-12-14T11:14:54.395Z,94228.25
2022-12-14T11:17:32.171Z,94248.03
2022-12-14T11:20:26.765Z,94235.78
2022-12-14T11:22:56.196Z,94239.22
2022-12-14T11:25:36.210Z,94236.59
2022-12-14T11:28:16.022Z,94230.25
2022-12-14T11:30:54.525Z,94222.13
2022-12-14T11:33:22.778Z,94221.22
2022-12-14T11:35:51.889Z,94227.44
2022-12-14T11:38:19.997Z,94220.38
2022-12-14T11:40:48.801Z,94221.47
2022-12-14T11:43:27.013Z,94235.97
2022-12-14T11:45:56.512Z,94232.03
2022-12-14T11:48:25.553Z,94222.25
2022-12-14T11:50:55.563Z,94224.81
2022-12-14T11:53:24.393Z,94223.03
2022-12-14T11:55:57.791Z,94216.03
2022-12-14T11:58:29.370Z,94229.63
2022-12-14T12:01:00.058Z,94217.91
2022-12-14T12:03:32.169Z,94230.41
2022-12-14T12:06:05.914Z,94215.47
2022-12-14T12:08:35.843Z,94227.19
2022-12-14T12:11:07.155Z,94228.72
2022-12-14T12:13:39.323Z,94223.00
2022-12-14T12:16:14.724Z,94225.34
2022-12-14T12:18:47.115Z,94221.97
2022-12-14T12:21:18.979Z,94221.13
2022-12-14T12:23:51.065Z,94230.69
2022-12-14T12:26:24.512Z,94234.47
2022-12-14T12:28:56.717Z,94231.44
2022-12-14T12:31:31.172Z,94218.56
2022-12-14T12:34:02.834Z,94224.31
2022-12-14T12:36:33.461Z,94232.84
2022-12-14T12:39:05.209Z,94207.91
2022-12-14T12:41:44.918Z,94225.16
2022-12-14T12:44:24.004Z,94221.03
2022-12-14T12:49:49.989Z,94225.50
2022-12-14T12:52:23.833Z,94226.94
2022-12-14T12:54:58.632Z,94199.09
2022-12-14T12:57:33.230Z,94237.38
2022-12-14T13:00:01.789Z,94235.75
2022-12-14T13:02:33.159Z,94232.06
2022-12-14T13:05:22.321Z,94246.91
2022-12-14T13:07:54.312Z,94237.53
2022-12-14T13:10:23.835Z,94245.38
2022-12-14T13:12:57.996Z,94242.38
2022-12-14T13:15:29.896Z,94247.03
2022-12-14T13:18:01.583Z,94247.25
2022-12-14T13:20:33.066Z,94213.25
2022-12-14T13:23:15.144Z,94233.72
2022-12-14T13:26:02.002Z,94261.69
2022-12-14T13:28:55.322Z,94265.66
2022-12-14T13:31:36.757Z,94265.31
2022-12-14T13:34:28.302Z,94262.06
2022-12-14T13:37:25.237Z,94269.53
2022-12-14T13:40:19.718Z,94262.31
2022-12-14T13:42:58.634Z,94270.28
2022-12-14T13:45:35.454Z,94269.94
2022-12-14T13:48:09.128Z,94231.03
2022-12-14T13:50:44.512Z,94250.41
2022-12-14T13:53:30.254Z,94263.53
2022-12-14T13:55:59.697Z,94258.00
2022-12-14T13:58:37.207Z,94275.31
2022-12-14T14:01:08.342Z,94271.22
2022-12-14T14:03:51.655Z,94277.78
2022-12-14T14:06:39.127Z,94272.22
2022-12-14T14:09:59.218Z,94276.63
2022-12-14T14:12:39.048Z,94272.09
2022-12-14T14:15:31.332Z,94288.41
2022-12-14T14:18:14.215Z,94283.88
2022-12-14T14:20:43.087Z,94283.06
2022-12-14T14:23:30.835Z,94294.22
2022-12-14T14:26:20.253Z,94286.56
2022-12-14T14:28:53.639Z,94296.13
2022-12-14T14:31:21.502Z,94302.31
2022-12-14T14:33:56.027Z,94295.38
2022-12-14T14:36:30.267Z,94299.25
2022-12-14T14:39:00.807Z,94306.16
2022-12-14T14:41:32.334Z,94306.22
2022-12-14T14:44:02.009Z,94303.03
2022-12-14T14:46:37.092Z,94309.63
2022-12-14T14:49:07.594Z,94306.72
2022-12-14T14:51:37.372Z,94306.28
2022-12-14T14:55:10.698Z,94309.56
2022-12-14T14:57:35.080Z,94307.44
2022-12-14T15:00:03.923Z,94313.88
2022-12-14T15:02:34.159Z,94311.53
2022-12-14T15:05:33.027Z,94299.06
2022-12-14T15:07:55.344Z,94311.97
2022-12-14T15:10:29.489Z,94313.97
2022-12-14T15:13:01.909Z,94334.09
2022-12-14T15:15:37.147Z,94325.78
2022-12-14T15:18:25.061Z,94325.59
2022-12-14T15:20:58.929Z,94340.94
2022-12-14T15:23:33.366Z,94341.19
2022-12-14T15:26:03.451Z,94344.56
2022-12-14T15:28:31.998Z,94330.16
2022-12-14T15:31:00.033Z,94352.34
2022-12-14T15:33:32.478Z,94343.97
2022-12-14T15:36:05.841Z,94353.25
2022-12-14T15:38:35.241Z,94311.50
2022-12-14T15:41:05.351Z,94357.88
2022-12-14T15:43:33.675Z,94362.66
2022-12-14T15:46:03.637Z,94356.09
2022-12-14T15:48:34.187Z,94375.34
2022-12-14T15:51:05.178Z,94379.69
2022-12-14T15:53:36.406Z,94377.56
2022-12-14T15:56:15.564Z,94383.13
2022-12-14T15:58:45.146Z,94389.63
2022-12-14T16:01:18.347Z,94389.84
2022-12-14T16:03:48.465Z,94387.75
2022-12-14T16:06:19.169Z,94379.00
2022-12-14T16:08:51.509Z,94397.94
2022-12-14T16:11:26.230Z,94416.94
2022-12-14T16:13:53.962Z,94382.84
2022-12-14T16:16:21.966Z,94397.66
2022-12-14T16:18:51.479Z,94401.06
2022-12-14T16:21:31.527Z,94413.84
2022-12-14T16:23:59.687Z,94423.88
2022-12-14T16:26:32.937Z,94417.63
2022-12-14T16:29:09.125Z,94398.66
2022-12-14T16:31:38.108Z,94419.78
2022-12-14T16:34:13.358Z,94433.50
2022-12-14T16:36:48.216Z,94436.25
2022-12-14T16:39:26.784Z,94419.44
2022-12-14T16:41:58.336Z,94423.56
2022-12-14T16:44:39.020Z,94419.66
2022-12-14T16:47:28.507Z,94442.56
2022-12-14T16:49:59.451Z,94419.47
2022-12-14T16:52:31.305Z,94424.19
2022-12-14T16:55:08.892Z,94442.56
2022-12-14T16:57:39.279Z,94436.72
2022-12-14T17:00:08.896Z,94445.50
2022-12-14T17:02:42.221Z,94453.16
2022-12-14T17:05:15.332Z,94446.47
2022-12-14T17:07:44.274Z,94436.13
2022-12-14T17:10:15.970Z,94442.56
2022-12-14T17:12:45.044Z,94449.22
2022-12-14T17:15:14.045Z,94451.94
2022-12-14T17:17:41.703Z,94450.00
2022-12-14T17:20:16.455Z,94469.53
2022-12-14T17:22:49.577Z,94460.16
2022-12-14T17:25:18.140Z,94416.94
2022-12-14T17:27:46.220Z,94455.47
2022-12-14T17:30:16.518Z,94464.47
2022-12-14T17:32:44.914Z,94447.25
2022-12-14T17:35:17.401Z,94449.22
2022-12-14T17:37:46.229Z,94451.16
2022-12-14T17:40:14.058Z,94457.44
2022-12-14T17:42:43.485Z,94462.72
2022-12-14T17:45:19.542Z,94468.41
2022-12-14T17:47:47.023Z,94459.78
2022-12-14T17:50:15.317Z,94459.19
2022-12-14T17:52:43.517Z,94464.06
2022-12-14T17:55:18.473Z,94465.44
2022-12-14T17:57:46.021Z,94453.28
2022-12-14T18:00:34.785Z,94458.78
2022-12-14T18:03:02.846Z,94468.16
2022-12-14T18:05:32.062Z,94453.69
2022-12-14T18:07:59.983Z,94458.19
2022-12-14T18:10:28.970Z,94458.97
2022-12-14T18:12:57.081Z,94452.31
2022-12-14T18:15:27.437Z,94443.88
2022-12-14T18:17:55.427Z,94464.81
2022-12-14T18:20:24.902Z,94389.38
2022-12-14T18:22:55.837Z,94480.38
2022-12-14T18:25:32.655Z,94454.28
2022-12-14T18:28:01.397Z,94488.34
2022-12-14T18:30:35.030Z,94482.28
2022-12-14T18:33:06.842Z,94480.91
2022-12-14T18:35:36.069Z,94468.53
2022-12-14T18:38:03.896Z,94485.41
2022-12-14T18:40:36.719Z,94508.44
2022-12-14T18:43:04.541Z,94509.03
2022-12-14T18:45:34.697Z,94499.59
2022-12-14T18:48:02.693Z,94469.38
2022-12-14T18:50:30.634Z,94502.53
2022-12-14T18:52:58.406Z,94458.16
2022-12-14T18:55:28.345Z,94511.03
2022-12-14T18:58:01.520Z,94484.72
2022-12-14T19:00:32.564Z,94492.88
2022-12-14T19:03:02.570Z,94519.13
2022-12-14T19:05:32.261Z,94476.72
2022-12-14T19:08:00.962Z,94511.56
2022-12-14T19:10:30.519Z,94519.34
2022-12-14T19:13:00.104Z,94546.16
2022-12-14T19:15:30.511Z,94517.50
2022-12-14T19:17:58.403Z,94538.44
2022-12-14T19:20:27.174Z,94514.59
2022-12-14T19:22:54.848Z,94512.19
2022-12-14T19:25:23.946Z,94536.94
2022-12-14T19:30:47.184Z,94548.91
2022-12-14T19:33:14.933Z,94551.97
2022-12-14T19:35:43.579Z,94511.41
2022-12-14T19:38:14.088Z,94551.56
2022-12-14T19:40:41.775Z,94529.03
2022-12-14T19:43:10.181Z,94517.28
2022-12-14T19:45:39.414Z,94531.50
2022-12-14T19:48:12.932Z,94555.22
2022-12-14T19:50:41.158Z,94559.09
2022-12-14T19:53:09.068Z,94543.41
2022-12-14T19:55:36.941Z,94519.19
2022-12-14T19:58:04.732Z,94527.56
2022-12-14T20:00:32.499Z,94567.34
2022-12-14T20:03:02.987Z,94576.72
2022-12-14T20:05:32.385Z,94566.03
2022-12-14T20:08:00.014Z,94549.91
2022-12-14T20:10:27.697Z,94535.72
2022-12-14T20:12:55.483Z,94539.84
2022-12-14T20:15:23.092Z,94548.25
2022-12-14T20:17:50.911Z,94570.53
2022-12-14T20:20:19.234Z,94589.50
2022-12-14T20:22:49.062Z,94564.31
2022-12-14T20:25:16.813Z,94541.22
2022-12-14T20:27:47.318Z,94573.34
2022-12-14T20:30:15.103Z,94598.41
2022-12-14T20:32:42.773Z,94556.72
2022-12-14T20:35:11.999Z,94598.97
2022-12-14T20:37:39.890Z,94605.31
2022-12-14T20:40:13.666Z,94613.59
2022-12-14T20:42:41.520Z,94580.38
2022-12-14T20:45:09.975Z,94593.56
2022-12-14T20:47:37.695Z,94599.78
2022-12-14T20:50:05.828Z,94574.19
2022-12-14T20:52:33.547Z,94623.53
2022-12-14T20:55:01.233Z,94617.25
2022-12-14T20:57:32.944Z,94581.47
2022-12-14T21:00:00.723Z,94590.28
2022-12-14T21:02:28.854Z,94585.38
2022-12-14T21:04:56.753Z,94572.47
2022-12-14T21:07:26.447Z,94601.72
2022-12-14T21:09:54.602Z,94612.53
2022-12-14T21:12:25.053Z,94625.09
2022-12-14T21:14:55.995Z,94602.75
2022-12-14T21:17:26.307Z,94628.69
2022-12-14T21:19:54.330Z,94635.38
2022-12-14T21:22:25.501Z,94634.53
2022-12-14T21:25:02.910Z,94569.41
2022-12-14T21:27:35.480Z,94571.13
2022-12-14T21:30:05.835Z,94643.66
2022-12-14T21:32:36.272Z,94602.63
2022-12-14T21:35:07.209Z,94591.09
2022-12-14T21:37:37.370Z,94646.59
2022-12-14T21:40:05.954Z,94626.75
2022-12-14T21:42:32.513Z,94624.56
2022-12-14T21:45:00.000Z,94590.88
2022-12-14T21:47:30.588Z,94602.84
2022-12-14T21:49:58.449Z,94627.72
2022-12-14T21:52:28.434Z,94618.47
2022-12-14T21:54:58.485Z,94588.25
2022-12-14T21:57:49.763Z,94613.81
2022-12-14T22:00:18.873Z,94631.47
2022-12-14T22:02:47.944Z,94592.25
2022-12-14T22:05:15.787Z,94637.22
2022-12-14T22:07:43.458Z,94595.88
2022-12-14T22:10:11.170Z,94607.69
2022-12-14T22:12:38.701Z,94624.28
2022-12-14T22:15:06.845Z,94627.13
2022-12-14T22:17:34.590Z,94633.94
2022-12-14T22:20:03.771Z,94639.97
2022-12-14T22:22:31.317Z,94628.47
2022-12-14T22:24:59.572Z,94642.06
2022-12-14T22:27:27.104Z,94625.44
2022-12-14T22:29:54.564Z,94627.72
2022-12-14T22:32:22.251Z,94636.19
2022-12-14T22:34:50.218Z,94638.25
2022-12-14T22:37:19.001Z,94615.34
2022-12-14T22:39:47.648Z,94599.88
2022-12-14T22:42:15.881Z,94634.81
2022-12-14T22:44:43.382Z,94622.91
2022-12-14T22:47:10.867Z,94640.56
2022-12-14T22:49:38.323Z,94645.47
2022-12-14T22:52:05.924Z,94644.03
2022-12-14T22:54:38.258Z,94646.22
2022-12-14T22:57:10.953Z,94645.50
2022-12-14T22:59:41.677Z,94647.88
2022-12-14T23:02:09.732Z,94665.91
2022-12-14T23:04:38.145Z,94639.88
2022-12-14T23:07:05.903Z,94655.44
2022-12-14T23:09:52.087Z,94671.56
2022-12-14T23:12:37.293Z,94649.09
2022-12-14T23:15:22.968Z,94612.59
2022-12-14T23:18:08.345Z,94645.97
2022-12-14T23:20:53.606Z,94656.19
2022-12-14T23:23:38.867Z,94655.13
2022-12-14T23:26:25.257Z,94670.47
2022-12-14T23:29:10.387Z,94628.13
2022-12-14T23:31:55.637Z,94666.16
2022-12-14T23:34:40.871Z,94640.31
2022-12-14T23:37:26.145Z,94674.66
2022-12-14T23:40:11.343Z,94676.44
2022-12-14T23:42:57.849Z,94638.78
2022-12-14T23:45:43.143Z,94650.03
2022-12-14T23:48:28.325Z,94671.66
2022-12-14T23:51:13.722Z,94682.19
2022-12-14T23:53:58.894Z,94673.72
2022-12-14T23:56:44.162Z,94687.53
2022-12-14T23:59:32.675Z,94652.25
